Hachinohe, Japan
Current Conditions -  °F | °C
As of 11:00 AM on Tuesday 21 Oct 2014 (Local Time) from RJSA Reporting Station
Rain Showers Rain Showers  
Wind Chill: 57°   Ceiling: 5000
Heat Index: 57°   Visibility: 5mi
Dew Point: 55°   Wind: 3mph
Humidity: 94%   Direction: 200°SSW
Pressure: 30"   Gusts: NA
Location:  40.52°N, 141.52°E
Report Text: RJSA 210200Z 20003KT 8000 -SHRA FEW001 SCT020 BKN050 14/13 Q1016
Loading
Personal Weather Stations






























Interactive Weather Map
Tropical Storm Tracking
New forecast layout! Learn more

10-Day Weather Forecast

Advertisements
Track Severe Weather on mobile